sensor_id;sensor_type;location;lat;lon;timestamp;P1;durP1;ratioP1;P2;durP2;ratioP2
23496;SDS011;11925;48.122;11.560;2023-12-28T00:02:02;2.58;;;1.65;;
23496;SDS011;11925;48.122;11.560;2023-12-28T00:04:32;3.30;;;1.80;;
23496;SDS011;11925;48.122;11.560;2023-12-28T00:07:02;3.97;;;1.92;;
23496;SDS011;11925;48.122;11.560;2023-12-28T00:09:31;3.85;;;2.10;;
23496;SDS011;11925;48.122;11.560;2023-12-28T00:11:59;3.22;;;1.70;;
23496;SDS011;11925;48.122;11.560;2023-12-28T00:14:28;2.75;;;1.63;;
23496;SDS011;11925;48.122;11.560;2023-12-28T00:16:58;3.78;;;1.77;;
23496;SDS011;11925;48.122;11.560;2023-12-28T00:19:26;5.35;;;2.20;;
23496;SDS011;11925;48.122;11.560;2023-12-28T00:21:56;3.53;;;2.03;;
23496;SDS011;11925;48.122;11.560;2023-12-28T00:24:24;3.50;;;1.80;;
23496;SDS011;11925;48.122;11.560;2023-12-28T00:26:53;4.25;;;1.77;;
23496;SDS011;11925;48.122;11.560;2023-12-28T00:29:21;3.67;;;1.80;;
23496;SDS011;11925;48.122;11.560;2023-12-28T00:31:50;3.95;;;2.25;;
23496;SDS011;11925;48.122;11.560;2023-12-28T00:34:18;4.10;;;2.22;;
23496;SDS011;11925;48.122;11.560;2023-12-28T00:36:47;4.82;;;2.50;;
23496;SDS011;11925;48.122;11.560;2023-12-28T00:39:18;7.40;;;3.03;;
23496;SDS011;11925;48.122;11.560;2023-12-28T00:41:46;6.05;;;3.50;;
23496;SDS011;11925;48.122;11.560;2023-12-28T00:44:15;5.97;;;3.05;;
23496;SDS011;11925;48.122;11.560;2023-12-28T00:46:43;5.20;;;2.50;;
23496;SDS011;11925;48.122;11.560;2023-12-28T00:49:12;4.32;;;2.53;;
23496;SDS011;11925;48.122;11.560;2023-12-28T00:51:40;3.92;;;2.22;;
23496;SDS011;11925;48.122;11.560;2023-12-28T00:54:09;3.88;;;2.17;;
23496;SDS011;11925;48.122;11.560;2023-12-28T00:56:39;6.72;;;3.95;;
23496;SDS011;11925;48.122;11.560;2023-12-28T00:59:08;9.13;;;5.00;;
23496;SDS011;11925;48.122;11.560;2023-12-28T01:01:36;8.95;;;4.28;;
23496;SDS011;11925;48.122;11.560;2023-12-28T01:04:04;8.57;;;3.67;;
23496;SDS011;11925;48.122;11.560;2023-12-28T01:06:33;6.95;;;3.80;;
23496;SDS011;11925;48.122;11.560;2023-12-28T01:09:02;7.60;;;4.00;;
23496;SDS011;11925;48.122;11.560;2023-12-28T01:11:30;5.40;;;3.45;;
23496;SDS011;11925;48.122;11.560;2023-12-28T01:14:02;5.90;;;3.25;;
23496;SDS011;11925;48.122;11.560;2023-12-28T01:16:31;4.23;;;2.70;;
23496;SDS011;11925;48.122;11.560;2023-12-28T01:19:00;5.65;;;2.92;;
23496;SDS011;11925;48.122;11.560;2023-12-28T01:21:29;6.22;;;2.97;;
23496;SDS011;11925;48.122;11.560;2023-12-28T01:23:57;5.25;;;2.80;;
23496;SDS011;11925;48.122;11.560;2023-12-28T01:26:25;4.05;;;2.35;;
23496;SDS011;11925;48.122;11.560;2023-12-28T01:28:55;4.30;;;2.30;;
23496;SDS011;11925;48.122;11.560;2023-12-28T01:31:26;5.75;;;2.70;;
23496;SDS011;11925;48.122;11.560;2023-12-28T01:33:57;4.38;;;2.45;;
23496;SDS011;11925;48.122;11.560;2023-12-28T01:36:26;4.68;;;2.63;;
23496;SDS011;11925;48.122;11.560;2023-12-28T01:38:56;6.22;;;3.38;;
23496;SDS011;11925;48.122;11.560;2023-12-28T01:41:24;5.70;;;3.65;;
23496;SDS011;11925;48.122;11.560;2023-12-28T01:43:53;5.40;;;3.25;;
23496;SDS011;11925;48.122;11.560;2023-12-28T01:46:21;4.75;;;2.80;;
23496;SDS011;11925;48.122;11.560;2023-12-28T01:48:51;3.92;;;2.22;;
23496;SDS011;11925;48.122;11.560;2023-12-28T01:51:21;4.03;;;2.63;;
23496;SDS011;11925;48.122;11.560;2023-12-28T01:53:51;5.47;;;2.58;;
23496;SDS011;11925;48.122;11.560;2023-12-28T01:56:20;6.30;;;3.17;;
23496;SDS011;11925;48.122;11.560;2023-12-28T01:58:49;6.40;;;2.97;;
23496;SDS011;11925;48.122;11.560;2023-12-28T02:01:19;5.65;;;2.67;;
23496;SDS011;11925;48.122;11.560;2023-12-28T02:03:48;4.82;;;2.67;;
23496;SDS011;11925;48.122;11.560;2023-12-28T02:06:18;4.20;;;2.17;;
23496;SDS011;11925;48.122;11.560;2023-12-28T02:08:51;3.63;;;2.08;;
23496;SDS011;11925;48.122;11.560;2023-12-28T02:11:19;4.50;;;2.35;;
23496;SDS011;11925;48.122;11.560;2023-12-28T02:13:48;4.05;;;1.77;;
23496;SDS011;11925;48.122;11.560;2023-12-28T02:16:19;3.30;;;2.03;;
23496;SDS011;11925;48.122;11.560;2023-12-28T02:18:56;3.05;;;1.90;;
23496;SDS011;11925;48.122;11.560;2023-12-28T02:21:28;4.30;;;2.17;;
23496;SDS011;11925;48.122;11.560;2023-12-28T02:23:58;5.32;;;2.03;;
23496;SDS011;11925;48.122;11.560;2023-12-28T02:26:28;4.80;;;2.13;;
23496;SDS011;11925;48.122;11.560;2023-12-28T02:28:57;4.85;;;2.00;;
23496;SDS011;11925;48.122;11.560;2023-12-28T02:31:26;4.55;;;1.95;;
23496;SDS011;11925;48.122;11.560;2023-12-28T02:34:03;3.92;;;2.33;;
23496;SDS011;11925;48.122;11.560;2023-12-28T02:36:35;4.35;;;2.13;;
23496;SDS011;11925;48.122;11.560;2023-12-28T02:39:05;4.20;;;2.28;;
23496;SDS011;11925;48.122;11.560;2023-12-28T02:41:38;3.72;;;2.10;;
23496;SDS011;11925;48.122;11.560;2023-12-28T02:44:07;6.00;;;2.38;;
23496;SDS011;11925;48.122;11.560;2023-12-28T02:46:35;6.85;;;2.47;;
23496;SDS011;11925;48.122;11.560;2023-12-28T02:49:04;6.18;;;2.17;;
23496;SDS011;11925;48.122;11.560;2023-12-28T02:51:33;4.55;;;2.28;;
23496;SDS011;11925;48.122;11.560;2023-12-28T02:54:03;3.33;;;2.10;;
23496;SDS011;11925;48.122;11.560;2023-12-28T02:56:31;5.72;;;2.03;;
23496;SDS011;11925;48.122;11.560;2023-12-28T02:59:01;3.92;;;1.95;;
23496;SDS011;11925;48.122;11.560;2023-12-28T03:01:29;3.75;;;2.17;;
23496;SDS011;11925;48.122;11.560;2023-12-28T03:03:58;5.28;;;2.22;;
23496;SDS011;11925;48.122;11.560;2023-12-28T03:06:27;5.28;;;2.60;;
23496;SDS011;11925;48.122;11.560;2023-12-28T03:08:55;4.65;;;2.10;;
23496;SDS011;11925;48.122;11.560;2023-12-28T03:11:24;4.68;;;2.22;;
23496;SDS011;11925;48.122;11.560;2023-12-28T03:13:53;3.85;;;2.33;;
23496;SDS011;11925;48.122;11.560;2023-12-28T03:16:23;4.10;;;2.35;;
23496;SDS011;11925;48.122;11.560;2023-12-28T03:18:52;4.13;;;2.35;;
23496;SDS011;11925;48.122;11.560;2023-12-28T03:21:20;5.55;;;2.45;;
23496;SDS011;11925;48.122;11.560;2023-12-28T03:23:49;4.93;;;2.85;;
23496;SDS011;11925;48.122;11.560;2023-12-28T03:26:17;7.93;;;2.53;;
23496;SDS011;11925;48.122;11.560;2023-12-28T03:28:45;5.15;;;2.38;;
23496;SDS011;11925;48.122;11.560;2023-12-28T03:31:13;6.25;;;2.25;;
23496;SDS011;11925;48.122;11.560;2023-12-28T03:33:43;4.47;;;2.22;;
23496;SDS011;11925;48.122;11.560;2023-12-28T03:41:17;4.80;;;2.45;;
23496;SDS011;11925;48.122;11.560;2023-12-28T03:43:46;4.72;;;2.28;;
23496;SDS011;11925;48.122;11.560;2023-12-28T03:46:15;3.75;;;1.90;;
23496;SDS011;11925;48.122;11.560;2023-12-28T03:48:45;3.95;;;2.00;;
23496;SDS011;11925;48.122;11.560;2023-12-28T03:51:14;5.00;;;1.80;;
23496;SDS011;11925;48.122;11.560;2023-12-28T03:53:43;2.78;;;1.70;;
23496;SDS011;11925;48.122;11.560;2023-12-28T03:56:20;3.42;;;1.45;;
23496;SDS011;11925;48.122;11.560;2023-12-28T03:58:52;2.58;;;1.40;;
23496;SDS011;11925;48.122;11.560;2023-12-28T04:01:21;3.45;;;1.75;;
23496;SDS011;11925;48.122;11.560;2023-12-28T04:03:52;2.60;;;1.50;;
23496;SDS011;11925;48.122;11.560;2023-12-28T04:06:20;2.08;;;1.20;;
23496;SDS011;11925;48.122;11.560;2023-12-28T04:08:49;2.33;;;1.42;;
23496;SDS011;11925;48.122;11.560;2023-12-28T04:11:17;4.22;;;1.20;;
23496;SDS011;11925;48.122;11.560;2023-12-28T04:13:46;2.38;;;1.30;;
23496;SDS011;11925;48.122;11.560;2023-12-28T04:16:15;3.83;;;1.35;;
23496;SDS011;11925;48.122;11.560;2023-12-28T04:18:44;2.80;;;1.20;;
23496;SDS011;11925;48.122;11.560;2023-12-28T04:21:14;2.00;;;1.10;;
23496;SDS011;11925;48.122;11.560;2023-12-28T04:23:42;1.75;;;1.02;;
23496;SDS011;11925;48.122;11.560;2023-12-28T04:26:12;2.42;;;1.13;;
23496;SDS011;11925;48.122;11.560;2023-12-28T04:28:40;2.17;;;1.15;;
23496;SDS011;11925;48.122;11.560;2023-12-28T04:31:09;1.98;;;1.30;;
23496;SDS011;11925;48.122;11.560;2023-12-28T04:33:37;1.60;;;1.08;;
23496;SDS011;11925;48.122;11.560;2023-12-28T04:36:07;2.42;;;1.23;;
23496;SDS011;11925;48.122;11.560;2023-12-28T04:38:37;2.40;;;1.30;;
23496;SDS011;11925;48.122;11.560;2023-12-28T04:41:06;2.38;;;1.40;;
23496;SDS011;11925;48.122;11.560;2023-12-28T04:43:38;2.70;;;1.10;;
23496;SDS011;11925;48.122;11.560;2023-12-28T04:46:06;3.53;;;1.65;;
23496;SDS011;11925;48.122;11.560;2023-12-28T04:48:35;4.53;;;1.77;;
23496;SDS011;11925;48.122;11.560;2023-12-28T04:51:04;3.40;;;1.42;;
23496;SDS011;11925;48.122;11.560;2023-12-28T04:53:33;2.70;;;1.58;;
23496;SDS011;11925;48.122;11.560;2023-12-28T04:56:03;2.67;;;1.77;;
23496;SDS011;11925;48.122;11.560;2023-12-28T04:58:32;3.37;;;1.57;;
23496;SDS011;11925;48.122;11.560;2023-12-28T05:01:01;4.70;;;1.80;;
23496;SDS011;11925;48.122;11.560;2023-12-28T05:03:30;3.33;;;1.50;;
23496;SDS011;11925;48.122;11.560;2023-12-28T05:05:59;3.28;;;1.30;;
23496;SDS011;11925;48.122;11.560;2023-12-28T05:08:29;4.27;;;1.60;;
23496;SDS011;11925;48.122;11.560;2023-12-28T05:10:58;2.53;;;1.33;;
23496;SDS011;11925;48.122;11.560;2023-12-28T05:13:28;5.03;;;1.63;;
23496;SDS011;11925;48.122;11.560;2023-12-28T05:15:57;2.90;;;1.30;;
23496;SDS011;11925;48.122;11.560;2023-12-28T05:18:25;2.88;;;1.15;;
23496;SDS011;11925;48.122;11.560;2023-12-28T05:20:54;3.10;;;1.10;;
23496;SDS011;11925;48.122;11.560;2023-12-28T05:23:23;2.40;;;1.02;;
23496;SDS011;11925;48.122;11.560;2023-12-28T05:25:51;3.72;;;1.08;;
23496;SDS011;11925;48.122;11.560;2023-12-28T05:28:20;3.47;;;1.27;;
23496;SDS011;11925;48.122;11.560;2023-12-28T05:30:50;2.75;;;1.08;;
23496;SDS011;11925;48.122;11.560;2023-12-28T05:33:19;3.67;;;1.13;;
23496;SDS011;11925;48.122;11.560;2023-12-28T05:35:47;3.42;;;1.30;;
23496;SDS011;11925;48.122;11.560;2023-12-28T05:38:16;2.10;;;1.00;;
23496;SDS011;11925;48.122;11.560;2023-12-28T05:40:44;3.53;;;1.27;;
23496;SDS011;11925;48.122;11.560;2023-12-28T05:43:13;3.25;;;1.10;;
23496;SDS011;11925;48.122;11.560;2023-12-28T05:45:46;4.35;;;1.23;;
23496;SDS011;11925;48.122;11.560;2023-12-28T05:48:16;6.43;;;1.38;;
23496;SDS011;11925;48.122;11.560;2023-12-28T05:50:45;5.45;;;1.05;;
23496;SDS011;11925;48.122;11.560;2023-12-28T05:53:13;3.53;;;1.52;;
23496;SDS011;11925;48.122;11.560;2023-12-28T05:55:42;6.55;;;1.40;;
23496;SDS011;11925;48.122;11.560;2023-12-28T05:58:11;2.65;;;1.05;;
23496;SDS011;11925;48.122;11.560;2023-12-28T06:00:40;3.17;;;1.08;;
23496;SDS011;11925;48.122;11.560;2023-12-28T06:03:09;2.92;;;1.30;;
23496;SDS011;11925;48.122;11.560;2023-12-28T06:05:39;2.83;;;1.40;;
23496;SDS011;11925;48.122;11.560;2023-12-28T06:08:08;2.90;;;1.50;;
23496;SDS011;11925;48.122;11.560;2023-12-28T06:10:37;6.53;;;2.10;;
23496;SDS011;11925;48.122;11.560;2023-12-28T06:13:06;3.63;;;1.55;;
23496;SDS011;11925;48.122;11.560;2023-12-28T06:15:35;2.10;;;1.10;;
23496;SDS011;11925;48.122;11.560;2023-12-28T06:18:03;4.82;;;1.80;;
23496;SDS011;11925;48.122;11.560;2023-12-28T06:20:32;4.75;;;1.90;;
23496;SDS011;11925;48.122;11.560;2023-12-28T06:23:06;4.13;;;1.60;;
23496;SDS011;11925;48.122;11.560;2023-12-28T06:25:35;4.55;;;2.10;;
23496;SDS011;11925;48.122;11.560;2023-12-28T06:28:04;2.70;;;1.30;;
23496;SDS011;11925;48.122;11.560;2023-12-28T06:30:33;2.58;;;1.02;;
23496;SDS011;11925;48.122;11.560;2023-12-28T06:33:02;2.70;;;1.40;;
23496;SDS011;11925;48.122;11.560;2023-12-28T06:35:34;1.95;;;1.17;;
23496;SDS011;11925;48.122;11.560;2023-12-28T06:38:04;2.22;;;1.00;;
23496;SDS011;11925;48.122;11.560;2023-12-28T06:40:36;2.78;;;1.27;;
23496;SDS011;11925;48.122;11.560;2023-12-28T06:43:04;2.65;;;1.00;;
23496;SDS011;11925;48.122;11.560;2023-12-28T06:45:33;2.85;;;1.08;;
23496;SDS011;11925;48.122;11.560;2023-12-28T06:48:01;2.70;;;1.10;;
23496;SDS011;11925;48.122;11.560;2023-12-28T06:50:30;2.47;;;1.30;;
23496;SDS011;11925;48.122;11.560;2023-12-28T06:52:59;4.43;;;1.20;;
23496;SDS011;11925;48.122;11.560;2023-12-28T06:55:28;3.05;;;1.30;;
23496;SDS011;11925;48.122;11.560;2023-12-28T06:57:57;2.67;;;1.25;;
23496;SDS011;11925;48.122;11.560;2023-12-28T07:00:26;5.65;;;1.58;;
23496;SDS011;11925;48.122;11.560;2023-12-28T07:02:54;6.63;;;3.35;;
23496;SDS011;11925;48.122;11.560;2023-12-28T07:05:23;5.88;;;2.80;;
23496;SDS011;11925;48.122;11.560;2023-12-28T07:07:51;8.18;;;2.72;;
23496;SDS011;11925;48.122;11.560;2023-12-28T07:10:20;4.97;;;2.60;;
23496;SDS011;11925;48.122;11.560;2023-12-28T07:12:50;5.75;;;2.55;;
23496;SDS011;11925;48.122;11.560;2023-12-28T07:15:18;7.53;;;3.75;;
23496;SDS011;11925;48.122;11.560;2023-12-28T07:17:47;5.63;;;2.40;;
23496;SDS011;11925;48.122;11.560;2023-12-28T07:20:15;4.45;;;2.22;;
23496;SDS011;11925;48.122;11.560;2023-12-28T07:22:44;5.15;;;1.88;;
23496;SDS011;11925;48.122;11.560;2023-12-28T07:25:12;6.07;;;1.67;;
23496;SDS011;11925;48.122;11.560;2023-12-28T07:27:41;3.38;;;1.40;;
23496;SDS011;11925;48.122;11.560;2023-12-28T07:30:11;2.83;;;1.00;;
23496;SDS011;11925;48.122;11.560;2023-12-28T07:32:40;3.10;;;1.13;;
23496;SDS011;11925;48.122;11.560;2023-12-28T07:35:09;2.90;;;1.20;;
23496;SDS011;11925;48.122;11.560;2023-12-28T07:37:38;3.58;;;1.65;;
23496;SDS011;11925;48.122;11.560;2023-12-28T07:40:06;4.63;;;1.60;;
23496;SDS011;11925;48.122;11.560;2023-12-28T07:42:35;4.88;;;1.50;;
23496;SDS011;11925;48.122;11.560;2023-12-28T07:45:04;2.95;;;1.40;;
23496;SDS011;11925;48.122;11.560;2023-12-28T07:47:34;2.70;;;1.40;;
23496;SDS011;11925;48.122;11.560;2023-12-28T07:50:03;3.22;;;1.35;;
23496;SDS011;11925;48.122;11.560;2023-12-28T07:52:32;4.18;;;1.48;;
23496;SDS011;11925;48.122;11.560;2023-12-28T07:55:01;3.80;;;1.30;;
23496;SDS011;11925;48.122;11.560;2023-12-28T07:57:30;3.83;;;1.30;;
23496;SDS011;11925;48.122;11.560;2023-12-28T08:00:00;3.03;;;1.55;;
23496;SDS011;11925;48.122;11.560;2023-12-28T08:02:30;5.82;;;2.58;;
23496;SDS011;11925;48.122;11.560;2023-12-28T08:05:00;6.32;;;3.65;;
23496;SDS011;11925;48.122;11.560;2023-12-28T08:07:28;4.63;;;1.67;;
23496;SDS011;11925;48.122;11.560;2023-12-28T08:09:57;4.53;;;1.60;;
23496;SDS011;11925;48.122;11.560;2023-12-28T08:12:26;1.75;;;1.00;;
23496;SDS011;11925;48.122;11.560;2023-12-28T08:14:55;2.33;;;1.48;;
23496;SDS011;11925;48.122;11.560;2023-12-28T08:17:23;4.70;;;1.77;;
23496;SDS011;11925;48.122;11.560;2023-12-28T08:19:52;1.95;;;1.23;;
23496;SDS011;11925;48.122;11.560;2023-12-28T08:22:22;3.70;;;1.58;;
23496;SDS011;11925;48.122;11.560;2023-12-28T08:24:50;4.25;;;1.35;;
23496;SDS011;11925;48.122;11.560;2023-12-28T08:27:19;3.35;;;1.30;;
23496;SDS011;11925;48.122;11.560;2023-12-28T08:29:47;4.43;;;1.30;;
23496;SDS011;11925;48.122;11.560;2023-12-28T08:32:16;7.75;;;1.27;;
23496;SDS011;11925;48.122;11.560;2023-12-28T08:34:45;3.03;;;1.20;;
23496;SDS011;11925;48.122;11.560;2023-12-28T08:37:14;2.58;;;1.02;;
23496;SDS011;11925;48.122;11.560;2023-12-28T08:39:44;2.20;;;1.05;;
23496;SDS011;11925;48.122;11.560;2023-12-28T08:42:15;6.75;;;1.15;;
23496;SDS011;11925;48.122;11.560;2023-12-28T08:44:43;3.88;;;1.42;;
23496;SDS011;11925;48.122;11.560;2023-12-28T08:47:15;3.20;;;1.10;;
23496;SDS011;11925;48.122;11.560;2023-12-28T08:49:44;4.18;;;1.13;;
23496;SDS011;11925;48.122;11.560;2023-12-28T08:52:12;2.75;;;1.00;;
23496;SDS011;11925;48.122;11.560;2023-12-28T08:54:41;2.85;;;1.35;;
23496;SDS011;11925;48.122;11.560;2023-12-28T08:57:11;2.58;;;1.40;;
23496;SDS011;11925;48.122;11.560;2023-12-28T08:59:39;2.67;;;1.30;;
23496;SDS011;11925;48.122;11.560;2023-12-28T09:02:08;2.83;;;1.30;;
23496;SDS011;11925;48.122;11.560;2023-12-28T09:04:36;6.32;;;1.27;;
23496;SDS011;11925;48.122;11.560;2023-12-28T09:07:05;8.60;;;4.50;;
23496;SDS011;11925;48.122;11.560;2023-12-28T09:09:34;7.40;;;3.50;;
23496;SDS011;11925;48.122;11.560;2023-12-28T09:12:02;5.63;;;2.35;;
23496;SDS011;11925;48.122;11.560;2023-12-28T09:14:32;4.63;;;2.20;;
23496;SDS011;11925;48.122;11.560;2023-12-28T09:17:01;3.80;;;1.92;;
23496;SDS011;11925;48.122;11.560;2023-12-28T09:19:30;6.75;;;1.88;;
23496;SDS011;11925;48.122;11.560;2023-12-28T09:21:58;4.82;;;1.95;;
23496;SDS011;11925;48.122;11.560;2023-12-28T09:24:27;3.95;;;1.40;;
23496;SDS011;11925;48.122;11.560;2023-12-28T09:26:55;3.65;;;1.27;;
23496;SDS011;11925;48.122;11.560;2023-12-28T09:29:24;2.70;;;1.40;;
23496;SDS011;11925;48.122;11.560;2023-12-28T09:31:54;6.38;;;1.25;;
23496;SDS011;11925;48.122;11.560;2023-12-28T09:34:22;3.08;;;1.10;;
23496;SDS011;11925;48.122;11.560;2023-12-28T09:36:51;2.75;;;0.80;;
23496;SDS011;11925;48.122;11.560;2023-12-28T09:39:19;2.25;;;1.20;;
23496;SDS011;11925;48.122;11.560;2023-12-28T09:41:49;2.13;;;0.80;;
23496;SDS011;11925;48.122;11.560;2023-12-28T09:44:23;1.52;;;0.70;;
23496;SDS011;11925;48.122;11.560;2023-12-28T09:46:54;1.35;;;0.70;;
23496;SDS011;11925;48.122;11.560;2023-12-28T09:49:24;1.50;;;0.85;;
23496;SDS011;11925;48.122;11.560;2023-12-28T09:51:53;2.22;;;0.93;;
23496;SDS011;11925;48.122;11.560;2023-12-28T09:54:21;3.22;;;1.10;;
23496;SDS011;11925;48.122;11.560;2023-12-28T09:56:50;1.50;;;0.90;;
23496;SDS011;11925;48.122;11.560;2023-12-28T09:59:22;3.85;;;0.90;;
23496;SDS011;11925;48.122;11.560;2023-12-28T10:01:51;1.50;;;0.90;;
23496;SDS011;11925;48.122;11.560;2023-12-28T10:04:26;1.20;;;0.75;;
23496;SDS011;11925;48.122;11.560;2023-12-28T10:06:56;2.08;;;0.85;;
23496;SDS011;11925;48.122;11.560;2023-12-28T10:09:27;2.95;;;0.70;;
23496;SDS011;11925;48.122;11.560;2023-12-28T10:11:56;2.88;;;0.98;;
23496;SDS011;11925;48.122;11.560;2023-12-28T10:14:26;2.15;;;0.70;;
23496;SDS011;11925;48.122;11.560;2023-12-28T10:16:57;1.83;;;0.80;;
23496;SDS011;11925;48.122;11.560;2023-12-28T10:19:25;4.60;;;0.80;;
23496;SDS011;11925;48.122;11.560;2023-12-28T10:21:54;2.28;;;0.95;;
23496;SDS011;11925;48.122;11.560;2023-12-28T10:24:23;1.05;;;0.65;;
23496;SDS011;11925;48.122;11.560;2023-12-28T10:26:52;2.28;;;0.90;;
23496;SDS011;11925;48.122;11.560;2023-12-28T10:29:21;8.77;;;4.15;;
23496;SDS011;11925;48.122;11.560;2023-12-28T10:31:53;28.58;;;13.60;;
23496;SDS011;11925;48.122;11.560;2023-12-28T10:34:23;50.05;;;23.55;;
23496;SDS011;11925;48.122;11.560;2023-12-28T10:36:52;27.83;;;13.10;;
23496;SDS011;11925;48.122;11.560;2023-12-28T10:39:22;21.65;;;11.25;;
23496;SDS011;11925;48.122;11.560;2023-12-28T10:41:54;20.90;;;10.82;;
23496;SDS011;11925;48.122;11.560;2023-12-28T10:44:26;21.17;;;10.32;;
23496;SDS011;11925;48.122;11.560;2023-12-28T10:47:00;19.35;;;9.45;;
23496;SDS011;11925;48.122;11.560;2023-12-28T10:49:32;18.02;;;8.65;;
23496;SDS011;11925;48.122;11.560;2023-12-28T10:52:03;14.75;;;7.10;;
23496;SDS011;11925;48.122;11.560;2023-12-28T10:57:09;8.57;;;4.30;;
23496;SDS011;11925;48.122;11.560;2023-12-28T10:59:43;7.65;;;4.18;;
23496;SDS011;11925;48.122;11.560;2023-12-28T11:02:18;8.45;;;4.35;;
23496;SDS011;11925;48.122;11.560;2023-12-28T11:04:56;6.55;;;3.60;;
23496;SDS011;11925;48.122;11.560;2023-12-28T11:07:27;7.82;;;3.60;;
23496;SDS011;11925;48.122;11.560;2023-12-28T11:09:59;5.60;;;2.72;;
23496;SDS011;11925;48.122;11.560;2023-12-28T11:12:31;6.05;;;3.00;;
23496;SDS011;11925;48.122;11.560;2023-12-28T11:15:00;6.05;;;2.45;;
23496;SDS011;11925;48.122;11.560;2023-12-28T11:17:34;5.15;;;1.92;;
23496;SDS011;11925;48.122;11.560;2023-12-28T11:20:07;5.33;;;2.23;;
23496;SDS011;11925;48.122;11.560;2023-12-28T11:25:05;4.75;;;2.10;;
23496;SDS011;11925;48.122;11.560;2023-12-28T11:27:35;4.57;;;2.30;;
23496;SDS011;11925;48.122;11.560;2023-12-28T11:30:04;4.07;;;1.98;;
23496;SDS011;11925;48.122;11.560;2023-12-28T11:32:33;4.80;;;1.73;;
23496;SDS011;11925;48.122;11.560;2023-12-28T11:35:07;3.03;;;1.30;;
23496;SDS011;11925;48.122;11.560;2023-12-28T11:37:38;3.58;;;1.50;;
23496;SDS011;11925;48.122;11.560;2023-12-28T11:40:12;4.05;;;1.15;;
23496;SDS011;11925;48.122;11.560;2023-12-28T11:42:47;3.80;;;1.33;;
23496;SDS011;11925;48.122;11.560;2023-12-28T11:45:21;3.00;;;1.15;;
23496;SDS011;11925;48.122;11.560;2023-12-28T11:47:58;3.28;;;1.17;;
23496;SDS011;11925;48.122;11.560;2023-12-28T11:50:29;2.90;;;0.93;;
23496;SDS011;11925;48.122;11.560;2023-12-28T11:52:58;3.13;;;1.20;;
23496;SDS011;11925;48.122;11.560;2023-12-28T11:55:27;2.17;;;1.10;;
23496;SDS011;11925;48.122;11.560;2023-12-28T11:57:55;3.85;;;1.10;;
23496;SDS011;11925;48.122;11.560;2023-12-28T12:00:24;2.53;;;1.05;;
23496;SDS011;11925;48.122;11.560;2023-12-28T12:02:53;5.32;;;1.60;;
23496;SDS011;11925;48.122;11.560;2023-12-28T12:05:23;2.85;;;0.88;;
23496;SDS011;11925;48.122;11.560;2023-12-28T12:07:54;2.30;;;1.00;;
23496;SDS011;11925;48.122;11.560;2023-12-28T12:10:23;3.50;;;1.10;;
23496;SDS011;11925;48.122;11.560;2023-12-28T12:12:52;3.15;;;0.80;;
23496;SDS011;11925;48.122;11.560;2023-12-28T12:15:21;3.22;;;1.80;;
23496;SDS011;11925;48.122;11.560;2023-12-28T12:17:49;3.65;;;1.60;;
23496;SDS011;11925;48.122;11.560;2023-12-28T12:20:21;3.50;;;1.70;;
23496;SDS011;11925;48.122;11.560;2023-12-28T12:22:49;3.15;;;1.20;;
23496;SDS011;11925;48.122;11.560;2023-12-28T12:25:20;2.78;;;1.17;;
23496;SDS011;11925;48.122;11.560;2023-12-28T12:27:48;2.33;;;1.10;;
23496;SDS011;11925;48.122;11.560;2023-12-28T12:30:18;4.70;;;1.52;;
23496;SDS011;11925;48.122;11.560;2023-12-28T12:32:47;2.95;;;1.00;;
23496;SDS011;11925;48.122;11.560;2023-12-28T12:35:16;2.63;;;1.30;;
23496;SDS011;11925;48.122;11.560;2023-12-28T12:37:48;3.67;;;1.83;;
23496;SDS011;11925;48.122;11.560;2023-12-28T12:40:17;3.20;;;1.00;;
23496;SDS011;11925;48.122;11.560;2023-12-28T12:42:55;2.08;;;0.95;;
23496;SDS011;11925;48.122;11.560;2023-12-28T12:45:25;4.47;;;1.08;;
23496;SDS011;11925;48.122;11.560;2023-12-28T12:47:53;2.83;;;0.93;;
23496;SDS011;11925;48.122;11.560;2023-12-28T12:50:22;2.13;;;0.93;;
23496;SDS011;11925;48.122;11.560;2023-12-28T12:52:51;2.40;;;0.80;;
23496;SDS011;11925;48.122;11.560;2023-12-28T12:55:20;2.03;;;0.90;;
23496;SDS011;11925;48.122;11.560;2023-12-28T12:57:49;2.95;;;0.90;;
23496;SDS011;11925;48.122;11.560;2023-12-28T13:00:19;4.57;;;1.25;;
23496;SDS011;11925;48.122;11.560;2023-12-28T13:02:49;3.53;;;1.20;;
23496;SDS011;11925;48.122;11.560;2023-12-28T13:05:20;1.73;;;0.93;;
23496;SDS011;11925;48.122;11.560;2023-12-28T13:07:48;4.03;;;1.15;;
23496;SDS011;11925;48.122;11.560;2023-12-28T13:10:17;3.25;;;1.00;;
23496;SDS011;11925;48.122;11.560;2023-12-28T13:12:46;1.98;;;0.93;;
23496;SDS011;11925;48.122;11.560;2023-12-28T13:15:14;4.93;;;1.05;;
23496;SDS011;11925;48.122;11.560;2023-12-28T13:17:44;3.08;;;0.90;;
23496;SDS011;11925;48.122;11.560;2023-12-28T13:20:13;5.28;;;1.08;;
23496;SDS011;11925;48.122;11.560;2023-12-28T13:22:41;4.45;;;0.93;;
23496;SDS011;11925;48.122;11.560;2023-12-28T13:25:10;4.43;;;1.10;;
23496;SDS011;11925;48.122;11.560;2023-12-28T13:27:39;4.10;;;1.30;;
23496;SDS011;11925;48.122;11.560;2023-12-28T13:30:08;2.40;;;1.08;;
23496;SDS011;11925;48.122;11.560;2023-12-28T13:32:38;2.78;;;1.30;;
23496;SDS011;11925;48.122;11.560;2023-12-28T13:35:08;4.70;;;1.40;;
23496;SDS011;11925;48.122;11.560;2023-12-28T13:37:37;2.83;;;1.00;;
23496;SDS011;11925;48.122;11.560;2023-12-28T13:40:06;3.22;;;1.00;;
23496;SDS011;11925;48.122;11.560;2023-12-28T13:42:36;4.88;;;1.65;;
23496;SDS011;11925;48.122;11.560;2023-12-28T13:45:05;3.28;;;1.60;;
23496;SDS011;11925;48.122;11.560;2023-12-28T13:47:34;3.65;;;1.33;;
23496;SDS011;11925;48.122;11.560;2023-12-28T13:50:03;3.63;;;1.30;;
23496;SDS011;11925;48.122;11.560;2023-12-28T13:52:34;4.82;;;1.55;;
23496;SDS011;11925;48.122;11.560;2023-12-28T13:55:03;2.25;;;1.33;;
23496;SDS011;11925;48.122;11.560;2023-12-28T13:57:32;3.80;;;1.35;;
23496;SDS011;11925;48.122;11.560;2023-12-28T14:00:00;3.13;;;1.55;;
23496;SDS011;11925;48.122;11.560;2023-12-28T14:02:37;3.38;;;1.85;;
23496;SDS011;11925;48.122;11.560;2023-12-28T14:05:06;2.40;;;1.30;;
23496;SDS011;11925;48.122;11.560;2023-12-28T14:07:37;3.33;;;1.65;;
23496;SDS011;11925;48.122;11.560;2023-12-28T14:10:05;4.05;;;1.67;;
23496;SDS011;11925;48.122;11.560;2023-12-28T14:12:35;5.00;;;1.80;;
23496;SDS011;11925;48.122;11.560;2023-12-28T14:15:03;6.65;;;1.65;;
23496;SDS011;11925;48.122;11.560;2023-12-28T14:17:34;4.60;;;1.70;;
23496;SDS011;11925;48.122;11.560;2023-12-28T14:20:02;4.55;;;1.73;;
23496;SDS011;11925;48.122;11.560;2023-12-28T14:22:33;4.47;;;1.90;;
23496;SDS011;11925;48.122;11.560;2023-12-28T14:25:04;5.57;;;2.40;;
23496;SDS011;11925;48.122;11.560;2023-12-28T14:27:34;4.47;;;2.00;;
23496;SDS011;11925;48.122;11.560;2023-12-28T14:30:03;3.70;;;2.03;;
23496;SDS011;11925;48.122;11.560;2023-12-28T14:32:35;5.00;;;2.10;;
23496;SDS011;11925;48.122;11.560;2023-12-28T14:35:04;4.13;;;1.77;;
23496;SDS011;11925;48.122;11.560;2023-12-28T14:37:34;4.25;;;1.90;;
23496;SDS011;11925;48.122;11.560;2023-12-28T14:40:04;5.47;;;2.13;;
23496;SDS011;11925;48.122;11.560;2023-12-28T14:45:02;4.82;;;1.80;;
23496;SDS011;11925;48.122;11.560;2023-12-28T14:47:31;5.45;;;2.05;;
23496;SDS011;11925;48.122;11.560;2023-12-28T14:50:00;9.40;;;5.35;;
23496;SDS011;11925;48.122;11.560;2023-12-28T14:52:33;12.77;;;8.10;;
23496;SDS011;11925;48.122;11.560;2023-12-28T14:55:06;11.50;;;5.85;;
23496;SDS011;11925;48.122;11.560;2023-12-28T14:57:35;8.00;;;4.32;;
23496;SDS011;11925;48.122;11.560;2023-12-28T15:00:04;8.48;;;3.78;;